sensor_id;sensor_type;location;lat;lon;timestamp;P1;durP1;ratioP1;P2;durP2;ratioP2
7729;SDS011;3908;52.310;7.230;2023-02-12T00:00:26;23.17;;;11.97;;
7729;SDS011;3908;52.310;7.230;2023-02-12T00:03:13;24.63;;;13.60;;
7729;SDS011;3908;52.310;7.230;2023-02-12T00:06:00;23.10;;;13.23;;
7729;SDS011;3908;52.310;7.230;2023-02-12T00:08:49;26.30;;;13.90;;
7729;SDS011;3908;52.310;7.230;2023-02-12T00:11:37;25.43;;;13.13;;
7729;SDS011;3908;52.310;7.230;2023-02-12T00:14:26;27.13;;;13.63;;
7729;SDS011;3908;52.310;7.230;2023-02-12T00:17:13;29.30;;;13.77;;
7729;SDS011;3908;52.310;7.230;2023-02-12T00:20:00;31.30;;;15.03;;
7729;SDS011;3908;52.310;7.230;2023-02-12T00:22:49;26.90;;;14.47;;
7729;SDS011;3908;52.310;7.230;2023-02-12T00:25:39;27.63;;;14.27;;
7729;SDS011;3908;52.310;7.230;2023-02-12T00:28:27;23.63;;;13.83;;
7729;SDS011;3908;52.310;7.230;2023-02-12T00:31:16;28.00;;;13.60;;
7729;SDS011;3908;52.310;7.230;2023-02-12T00:34:12;29.97;;;14.87;;
7729;SDS011;3908;52.310;7.230;2023-02-12T00:36:59;28.87;;;14.50;;
7729;SDS011;3908;52.310;7.230;2023-02-12T00:39:47;27.77;;;14.53;;
7729;SDS011;3908;52.310;7.230;2023-02-12T00:42:34;26.33;;;14.80;;
7729;SDS011;3908;52.310;7.230;2023-02-12T00:45:21;24.03;;;15.43;;
7729;SDS011;3908;52.310;7.230;2023-02-12T00:48:09;23.47;;;13.70;;
7729;SDS011;3908;52.310;7.230;2023-02-12T00:50:57;24.93;;;14.27;;
7729;SDS011;3908;52.310;7.230;2023-02-12T00:53:45;29.53;;;14.47;;
7729;SDS011;3908;52.310;7.230;2023-02-12T00:56:32;29.17;;;14.87;;
7729;SDS011;3908;52.310;7.230;2023-02-12T00:59:19;30.90;;;15.10;;
7729;SDS011;3908;52.310;7.230;2023-02-12T01:02:06;25.37;;;15.13;;
7729;SDS011;3908;52.310;7.230;2023-02-12T01:04:54;25.87;;;15.33;;
7729;SDS011;3908;52.310;7.230;2023-02-12T01:07:42;25.07;;;14.53;;
7729;SDS011;3908;52.310;7.230;2023-02-12T01:10:30;26.93;;;14.77;;
7729;SDS011;3908;52.310;7.230;2023-02-12T01:13:17;26.70;;;14.93;;
7729;SDS011;3908;52.310;7.230;2023-02-12T01:16:05;33.70;;;15.00;;
7729;SDS011;3908;52.310;7.230;2023-02-12T01:18:55;33.70;;;15.13;;
7729;SDS011;3908;52.310;7.230;2023-02-12T01:21:43;29.30;;;14.97;;
7729;SDS011;3908;52.310;7.230;2023-02-12T01:24:30;28.90;;;14.53;;
7729;SDS011;3908;52.310;7.230;2023-02-12T01:27:17;29.30;;;14.60;;
7729;SDS011;3908;52.310;7.230;2023-02-12T01:30:05;29.50;;;14.37;;
7729;SDS011;3908;52.310;7.230;2023-02-12T01:32:54;26.97;;;14.90;;
7729;SDS011;3908;52.310;7.230;2023-02-12T01:35:41;28.57;;;14.23;;
7729;SDS011;3908;52.310;7.230;2023-02-12T01:38:30;27.17;;;13.97;;
7729;SDS011;3908;52.310;7.230;2023-02-12T01:41:18;27.00;;;14.80;;
7729;SDS011;3908;52.310;7.230;2023-02-12T01:44:09;32.40;;;15.03;;
7729;SDS011;3908;52.310;7.230;2023-02-12T01:47:00;35.00;;;14.83;;
7729;SDS011;3908;52.310;7.230;2023-02-12T01:49:49;28.50;;;15.33;;
7729;SDS011;3908;52.310;7.230;2023-02-12T01:52:37;30.40;;;14.37;;
7729;SDS011;3908;52.310;7.230;2023-02-12T01:55:30;33.43;;;15.73;;
7729;SDS011;3908;52.310;7.230;2023-02-12T01:58:19;30.23;;;15.67;;
7729;SDS011;3908;52.310;7.230;2023-02-12T02:01:12;27.67;;;15.40;;
7729;SDS011;3908;52.310;7.230;2023-02-12T02:04:04;28.27;;;14.10;;
7729;SDS011;3908;52.310;7.230;2023-02-12T02:06:56;28.63;;;14.67;;
7729;SDS011;3908;52.310;7.230;2023-02-12T02:09:44;26.27;;;13.90;;
7729;SDS011;3908;52.310;7.230;2023-02-12T02:12:33;27.90;;;15.50;;
7729;SDS011;3908;52.310;7.230;2023-02-12T02:15:37;28.73;;;14.67;;
7729;SDS011;3908;52.310;7.230;2023-02-12T02:18:29;28.60;;;15.67;;
7729;SDS011;3908;52.310;7.230;2023-02-12T02:24:56;30.77;;;15.70;;
7729;SDS011;3908;52.310;7.230;2023-02-12T02:28:08;31.73;;;14.87;;
7729;SDS011;3908;52.310;7.230;2023-02-12T02:31:07;27.00;;;14.03;;
7729;SDS011;3908;52.310;7.230;2023-02-12T02:34:02;29.23;;;15.87;;
7729;SDS011;3908;52.310;7.230;2023-02-12T02:36:55;26.90;;;14.93;;
7729;SDS011;3908;52.310;7.230;2023-02-12T02:39:49;28.07;;;14.90;;
7729;SDS011;3908;52.310;7.230;2023-02-12T02:42:42;30.30;;;15.20;;
7729;SDS011;3908;52.310;7.230;2023-02-12T02:45:33;28.83;;;14.47;;
7729;SDS011;3908;52.310;7.230;2023-02-12T02:48:27;31.67;;;15.43;;
7729;SDS011;3908;52.310;7.230;2023-02-12T02:51:19;30.03;;;15.73;;
7729;SDS011;3908;52.310;7.230;2023-02-12T02:54:12;28.20;;;15.50;;
7729;SDS011;3908;52.310;7.230;2023-02-12T02:57:04;33.53;;;15.73;;
7729;SDS011;3908;52.310;7.230;2023-02-12T02:59:55;31.97;;;15.87;;
7729;SDS011;3908;52.310;7.230;2023-02-12T03:02:50;33.43;;;15.80;;
7729;SDS011;3908;52.310;7.230;2023-02-12T03:05:43;30.00;;;15.87;;
7729;SDS011;3908;52.310;7.230;2023-02-12T03:08:36;33.17;;;16.87;;
7729;SDS011;3908;52.310;7.230;2023-02-12T03:11:28;30.37;;;16.23;;
7729;SDS011;3908;52.310;7.230;2023-02-12T03:14:19;36.87;;;16.87;;
7729;SDS011;3908;52.310;7.230;2023-02-12T03:17:09;34.63;;;16.97;;
7729;SDS011;3908;52.310;7.230;2023-02-12T03:20:01;33.77;;;15.93;;
7729;SDS011;3908;52.310;7.230;2023-02-12T03:22:55;37.73;;;17.87;;
7729;SDS011;3908;52.310;7.230;2023-02-12T03:25:47;36.27;;;17.10;;
7729;SDS011;3908;52.310;7.230;2023-02-12T03:28:41;32.97;;;17.00;;
7729;SDS011;3908;52.310;7.230;2023-02-12T03:31:29;30.40;;;16.50;;
7729;SDS011;3908;52.310;7.230;2023-02-12T03:34:25;32.20;;;17.23;;
7729;SDS011;3908;52.310;7.230;2023-02-12T03:37:23;35.53;;;16.53;;
7729;SDS011;3908;52.310;7.230;2023-02-12T03:40:16;35.63;;;17.60;;
7729;SDS011;3908;52.310;7.230;2023-02-12T03:43:07;35.20;;;17.17;;
7729;SDS011;3908;52.310;7.230;2023-02-12T03:46:00;32.13;;;16.60;;
7729;SDS011;3908;52.310;7.230;2023-02-12T03:48:55;36.93;;;17.33;;
7729;SDS011;3908;52.310;7.230;2023-02-12T03:51:46;34.47;;;16.77;;
7729;SDS011;3908;52.310;7.230;2023-02-12T03:54:34;30.60;;;15.97;;
7729;SDS011;3908;52.310;7.230;2023-02-12T03:57:23;30.20;;;16.90;;
7729;SDS011;3908;52.310;7.230;2023-02-12T04:00:16;26.87;;;16.90;;
7729;SDS011;3908;52.310;7.230;2023-02-12T04:03:05;35.80;;;16.97;;
7729;SDS011;3908;52.310;7.230;2023-02-12T04:05:53;25.67;;;14.93;;
7729;SDS011;3908;52.310;7.230;2023-02-12T04:08:40;32.00;;;16.83;;
7729;SDS011;3908;52.310;7.230;2023-02-12T04:11:28;38.63;;;17.10;;
7729;SDS011;3908;52.310;7.230;2023-02-12T04:14:28;30.43;;;16.23;;
7729;SDS011;3908;52.310;7.230;2023-02-12T04:17:27;31.53;;;16.13;;
7729;SDS011;3908;52.310;7.230;2023-02-12T04:20:22;36.93;;;16.70;;
7729;SDS011;3908;52.310;7.230;2023-02-12T04:23:21;35.20;;;16.47;;
7729;SDS011;3908;52.310;7.230;2023-02-12T04:26:23;35.83;;;17.20;;
7729;SDS011;3908;52.310;7.230;2023-02-12T04:29:23;37.57;;;17.13;;
7729;SDS011;3908;52.310;7.230;2023-02-12T04:32:19;31.03;;;16.20;;
7729;SDS011;3908;52.310;7.230;2023-02-12T04:35:17;29.50;;;16.70;;
7729;SDS011;3908;52.310;7.230;2023-02-12T04:38:09;31.10;;;15.60;;
7729;SDS011;3908;52.310;7.230;2023-02-12T04:41:03;36.43;;;16.87;;
7729;SDS011;3908;52.310;7.230;2023-02-12T04:43:51;33.80;;;16.90;;
7729;SDS011;3908;52.310;7.230;2023-02-12T04:46:40;31.30;;;16.97;;
7729;SDS011;3908;52.310;7.230;2023-02-12T04:49:27;34.70;;;17.97;;
7729;SDS011;3908;52.310;7.230;2023-02-12T04:52:14;35.10;;;17.10;;
7729;SDS011;3908;52.310;7.230;2023-02-12T04:55:01;30.83;;;15.93;;
7729;SDS011;3908;52.310;7.230;2023-02-12T04:57:48;30.23;;;16.23;;
7729;SDS011;3908;52.310;7.230;2023-02-12T05:00:35;33.43;;;16.40;;
7729;SDS011;3908;52.310;7.230;2023-02-12T05:03:23;28.80;;;15.30;;
7729;SDS011;3908;52.310;7.230;2023-02-12T05:06:10;32.17;;;16.77;;
7729;SDS011;3908;52.310;7.230;2023-02-12T05:08:57;31.70;;;16.57;;
7729;SDS011;3908;52.310;7.230;2023-02-12T05:11:45;32.50;;;16.27;;
7729;SDS011;3908;52.310;7.230;2023-02-12T05:14:32;30.40;;;15.20;;
7729;SDS011;3908;52.310;7.230;2023-02-12T05:17:20;30.00;;;16.37;;
7729;SDS011;3908;52.310;7.230;2023-02-12T05:20:09;25.30;;;15.37;;
7729;SDS011;3908;52.310;7.230;2023-02-12T05:22:57;27.30;;;15.83;;
7729;SDS011;3908;52.310;7.230;2023-02-12T05:25:43;31.93;;;15.90;;
7729;SDS011;3908;52.310;7.230;2023-02-12T05:28:32;33.07;;;15.90;;
7729;SDS011;3908;52.310;7.230;2023-02-12T05:31:20;31.50;;;16.13;;
7729;SDS011;3908;52.310;7.230;2023-02-12T05:34:07;33.03;;;16.90;;
7729;SDS011;3908;52.310;7.230;2023-02-12T05:37:00;30.77;;;16.77;;
7729;SDS011;3908;52.310;7.230;2023-02-12T05:39:47;29.67;;;16.13;;
7729;SDS011;3908;52.310;7.230;2023-02-12T05:42:34;29.07;;;16.07;;
7729;SDS011;3908;52.310;7.230;2023-02-12T05:45:21;26.13;;;15.70;;
7729;SDS011;3908;52.310;7.230;2023-02-12T05:48:12;40.83;;;16.97;;
7729;SDS011;3908;52.310;7.230;2023-02-12T05:51:02;31.30;;;16.90;;
7729;SDS011;3908;52.310;7.230;2023-02-12T05:53:54;27.77;;;15.53;;
7729;SDS011;3908;52.310;7.230;2023-02-12T05:56:45;28.30;;;17.20;;
7729;SDS011;3908;52.310;7.230;2023-02-12T05:59:33;34.13;;;17.93;;
7729;SDS011;3908;52.310;7.230;2023-02-12T06:02:20;33.27;;;15.87;;
7729;SDS011;3908;52.310;7.230;2023-02-12T06:05:09;31.17;;;16.20;;
7729;SDS011;3908;52.310;7.230;2023-02-12T06:08:03;30.03;;;16.73;;
7729;SDS011;3908;52.310;7.230;2023-02-12T06:10:52;33.77;;;17.67;;
7729;SDS011;3908;52.310;7.230;2023-02-12T06:13:39;31.00;;;15.90;;
7729;SDS011;3908;52.310;7.230;2023-02-12T06:16:26;28.80;;;16.30;;
7729;SDS011;3908;52.310;7.230;2023-02-12T06:19:14;32.13;;;17.50;;
7729;SDS011;3908;52.310;7.230;2023-02-12T06:22:01;30.57;;;15.67;;
7729;SDS011;3908;52.310;7.230;2023-02-12T06:24:48;26.53;;;16.53;;
7729;SDS011;3908;52.310;7.230;2023-02-12T06:27:36;27.70;;;15.83;;
7729;SDS011;3908;52.310;7.230;2023-02-12T06:30:29;30.37;;;16.50;;
7729;SDS011;3908;52.310;7.230;2023-02-12T06:33:19;34.87;;;18.17;;
7729;SDS011;3908;52.310;7.230;2023-02-12T06:36:06;32.07;;;18.17;;
7729;SDS011;3908;52.310;7.230;2023-02-12T06:38:53;37.87;;;17.73;;
7729;SDS011;3908;52.310;7.230;2023-02-12T06:41:41;34.53;;;18.07;;
7729;SDS011;3908;52.310;7.230;2023-02-12T06:44:29;35.63;;;17.33;;
7729;SDS011;3908;52.310;7.230;2023-02-12T06:47:17;37.43;;;17.37;;
7729;SDS011;3908;52.310;7.230;2023-02-12T06:50:04;36.57;;;18.03;;
7729;SDS011;3908;52.310;7.230;2023-02-12T06:52:52;36.00;;;16.50;;
7729;SDS011;3908;52.310;7.230;2023-02-12T06:55:39;35.33;;;19.87;;
7729;SDS011;3908;52.310;7.230;2023-02-12T06:58:26;32.30;;;17.73;;
7729;SDS011;3908;52.310;7.230;2023-02-12T07:01:15;37.63;;;18.83;;
7729;SDS011;3908;52.310;7.230;2023-02-12T07:04:04;39.00;;;18.90;;
7729;SDS011;3908;52.310;7.230;2023-02-12T07:06:51;38.13;;;17.97;;
7729;SDS011;3908;52.310;7.230;2023-02-12T07:09:38;37.93;;;19.13;;
7729;SDS011;3908;52.310;7.230;2023-02-12T07:12:25;41.90;;;18.83;;
7729;SDS011;3908;52.310;7.230;2023-02-12T07:15:12;42.53;;;20.30;;
7729;SDS011;3908;52.310;7.230;2023-02-12T07:18:01;42.57;;;19.50;;
7729;SDS011;3908;52.310;7.230;2023-02-12T07:20:48;39.83;;;19.37;;
7729;SDS011;3908;52.310;7.230;2023-02-12T07:23:35;39.03;;;19.30;;
7729;SDS011;3908;52.310;7.230;2023-02-12T07:26:22;39.47;;;19.00;;
7729;SDS011;3908;52.310;7.230;2023-02-12T07:29:09;41.57;;;20.47;;
7729;SDS011;3908;52.310;7.230;2023-02-12T07:31:57;42.80;;;20.17;;
7729;SDS011;3908;52.310;7.230;2023-02-12T07:34:47;41.63;;;19.93;;
7729;SDS011;3908;52.310;7.230;2023-02-12T07:37:34;36.93;;;19.77;;
7729;SDS011;3908;52.310;7.230;2023-02-12T07:40:21;32.63;;;18.00;;
7729;SDS011;3908;52.310;7.230;2023-02-12T07:43:08;39.17;;;20.00;;
7729;SDS011;3908;52.310;7.230;2023-02-12T07:45:55;38.10;;;19.70;;
7729;SDS011;3908;52.310;7.230;2023-02-12T07:48:42;38.43;;;19.33;;
7729;SDS011;3908;52.310;7.230;2023-02-12T07:51:31;47.57;;;21.03;;
7729;SDS011;3908;52.310;7.230;2023-02-12T07:54:19;38.77;;;19.27;;
7729;SDS011;3908;52.310;7.230;2023-02-12T07:57:06;44.27;;;19.57;;
7729;SDS011;3908;52.310;7.230;2023-02-12T07:59:53;38.03;;;20.20;;
7729;SDS011;3908;52.310;7.230;2023-02-12T08:02:40;44.27;;;20.90;;
7729;SDS011;3908;52.310;7.230;2023-02-12T08:05:27;46.43;;;20.40;;
7729;SDS011;3908;52.310;7.230;2023-02-12T08:08:15;37.13;;;20.13;;
7729;SDS011;3908;52.310;7.230;2023-02-12T08:11:02;40.50;;;20.07;;
7729;SDS011;3908;52.310;7.230;2023-02-12T08:13:50;45.47;;;21.43;;
7729;SDS011;3908;52.310;7.230;2023-02-12T08:16:38;43.80;;;20.90;;
7729;SDS011;3908;52.310;7.230;2023-02-12T08:19:26;40.63;;;20.73;;
7729;SDS011;3908;52.310;7.230;2023-02-12T08:22:13;46.10;;;22.20;;
7729;SDS011;3908;52.310;7.230;2023-02-12T08:25:01;40.90;;;20.57;;
7729;SDS011;3908;52.310;7.230;2023-02-12T08:27:48;42.50;;;20.33;;
7729;SDS011;3908;52.310;7.230;2023-02-12T08:30:35;38.20;;;20.27;;
7729;SDS011;3908;52.310;7.230;2023-02-12T08:33:22;42.87;;;20.63;;
7729;SDS011;3908;52.310;7.230;2023-02-12T08:36:10;41.73;;;20.10;;
7729;SDS011;3908;52.310;7.230;2023-02-12T08:38:59;41.17;;;20.47;;
7729;SDS011;3908;52.310;7.230;2023-02-12T08:41:47;37.00;;;18.37;;
7729;SDS011;3908;52.310;7.230;2023-02-12T08:44:35;42.73;;;19.23;;
7729;SDS011;3908;52.310;7.230;2023-02-12T08:47:22;35.87;;;18.17;;
7729;SDS011;3908;52.310;7.230;2023-02-12T08:50:09;36.10;;;17.90;;
7729;SDS011;3908;52.310;7.230;2023-02-12T08:52:56;38.07;;;17.57;;
7729;SDS011;3908;52.310;7.230;2023-02-12T08:55:46;33.97;;;16.73;;
7729;SDS011;3908;52.310;7.230;2023-02-12T08:58:35;35.10;;;17.63;;
7729;SDS011;3908;52.310;7.230;2023-02-12T09:01:23;31.87;;;16.77;;
7729;SDS011;3908;52.310;7.230;2023-02-12T09:04:13;39.73;;;18.17;;
7729;SDS011;3908;52.310;7.230;2023-02-12T09:07:02;35.73;;;18.67;;
7729;SDS011;3908;52.310;7.230;2023-02-12T09:09:49;35.23;;;18.63;;
7729;SDS011;3908;52.310;7.230;2023-02-12T09:12:36;31.60;;;16.67;;
7729;SDS011;3908;52.310;7.230;2023-02-12T09:15:24;34.20;;;17.83;;
7729;SDS011;3908;52.310;7.230;2023-02-12T09:18:12;38.20;;;15.90;;
7729;SDS011;3908;52.310;7.230;2023-02-12T09:21:00;33.03;;;16.97;;
7729;SDS011;3908;52.310;7.230;2023-02-12T09:23:48;32.23;;;15.10;;
7729;SDS011;3908;52.310;7.230;2023-02-12T09:26:38;37.87;;;18.93;;
7729;SDS011;3908;52.310;7.230;2023-02-12T09:29:25;32.53;;;15.57;;
7729;SDS011;3908;52.310;7.230;2023-02-12T09:32:13;33.53;;;16.47;;
7729;SDS011;3908;52.310;7.230;2023-02-12T09:35:00;30.93;;;15.87;;
7729;SDS011;3908;52.310;7.230;2023-02-12T09:37:47;28.10;;;15.23;;
7729;SDS011;3908;52.310;7.230;2023-02-12T09:40:35;31.07;;;15.43;;
7729;SDS011;3908;52.310;7.230;2023-02-12T09:43:30;30.23;;;16.00;;
7729;SDS011;3908;52.310;7.230;2023-02-12T09:46:24;31.93;;;16.60;;
7729;SDS011;3908;52.310;7.230;2023-02-12T09:49:18;31.07;;;15.43;;
7729;SDS011;3908;52.310;7.230;2023-02-12T09:52:18;36.70;;;16.20;;
7729;SDS011;3908;52.310;7.230;2023-02-12T09:55:09;23.97;;;14.20;;
7729;SDS011;3908;52.310;7.230;2023-02-12T09:57:58;29.57;;;15.93;;
7729;SDS011;3908;52.310;7.230;2023-02-12T10:00:47;25.10;;;13.80;;
7729;SDS011;3908;52.310;7.230;2023-02-12T10:03:34;26.03;;;14.67;;
7729;SDS011;3908;52.310;7.230;2023-02-12T10:06:24;29.93;;;14.90;;
7729;SDS011;3908;52.310;7.230;2023-02-12T10:25:03;25.67;;;13.50;;
7729;SDS011;3908;52.310;7.230;2023-02-12T10:28:01;25.27;;;13.43;;
7729;SDS011;3908;52.310;7.230;2023-02-12T10:30:55;23.33;;;12.73;;
7729;SDS011;3908;52.310;7.230;2023-02-12T10:33:45;22.77;;;12.37;;
7729;SDS011;3908;52.310;7.230;2023-02-12T10:36:36;26.00;;;12.70;;
7729;SDS011;3908;52.310;7.230;2023-02-12T10:39:28;22.73;;;11.03;;
7729;SDS011;3908;52.310;7.230;2023-02-12T10:42:20;20.10;;;10.90;;
7729;SDS011;3908;52.310;7.230;2023-02-12T10:45:19;19.13;;;10.27;;
7729;SDS011;3908;52.310;7.230;2023-02-12T10:48:09;21.50;;;10.80;;
7729;SDS011;3908;52.310;7.230;2023-02-12T10:51:02;21.13;;;10.97;;
7729;SDS011;3908;52.310;7.230;2023-02-12T10:57:25;21.87;;;11.37;;
7729;SDS011;3908;52.310;7.230;2023-02-12T11:00:14;17.23;;;10.20;;
7729;SDS011;3908;52.310;7.230;2023-02-12T11:03:17;15.07;;;8.60;;
7729;SDS011;3908;52.310;7.230;2023-02-12T11:06:10;16.03;;;8.33;;
7729;SDS011;3908;52.310;7.230;2023-02-12T11:09:00;16.23;;;8.40;;
7729;SDS011;3908;52.310;7.230;2023-02-12T11:11:47;15.37;;;8.97;;
7729;SDS011;3908;52.310;7.230;2023-02-12T11:14:35;11.70;;;7.53;;
7729;SDS011;3908;52.310;7.230;2023-02-12T11:17:24;14.70;;;8.00;;
7729;SDS011;3908;52.310;7.230;2023-02-12T11:20:19;11.20;;;6.27;;
7729;SDS011;3908;52.310;7.230;2023-02-12T11:23:21;13.17;;;6.03;;
7729;SDS011;3908;52.310;7.230;2023-02-12T11:26:22;14.87;;;6.63;;
7729;SDS011;3908;52.310;7.230;2023-02-12T11:29:16;11.33;;;6.70;;
7729;SDS011;3908;52.310;7.230;2023-02-12T11:32:16;15.07;;;7.23;;
7729;SDS011;3908;52.310;7.230;2023-02-12T11:35:05;16.03;;;6.63;;
7729;SDS011;3908;52.310;7.230;2023-02-12T11:37:57;11.23;;;6.00;;
7729;SDS011;3908;52.310;7.230;2023-02-12T11:40:45;10.73;;;6.50;;
7729;SDS011;3908;52.310;7.230;2023-02-12T11:43:34;12.83;;;7.17;;
7729;SDS011;3908;52.310;7.230;2023-02-12T11:46:24;13.73;;;6.50;;
7729;SDS011;3908;52.310;7.230;2023-02-12T11:49:15;12.70;;;6.70;;
7729;SDS011;3908;52.310;7.230;2023-02-12T11:52:07;12.57;;;6.23;;
7729;SDS011;3908;52.310;7.230;2023-02-12T11:55:06;11.07;;;6.23;;
7729;SDS011;3908;52.310;7.230;2023-02-12T11:58:13;12.70;;;7.27;;
7729;SDS011;3908;52.310;7.230;2023-02-12T12:01:04;11.87;;;5.90;;
7729;SDS011;3908;52.310;7.230;2023-02-12T12:03:57;13.70;;;7.63;;
7729;SDS011;3908;52.310;7.230;2023-02-12T12:06:52;12.17;;;6.80;;
7729;SDS011;3908;52.310;7.230;2023-02-12T12:09:45;13.50;;;7.43;;
7729;SDS011;3908;52.310;7.230;2023-02-12T12:12:50;13.33;;;6.63;;
7729;SDS011;3908;52.310;7.230;2023-02-12T12:15:42;14.73;;;7.40;;
7729;SDS011;3908;52.310;7.230;2023-02-12T12:18:50;12.40;;;7.13;;
7729;SDS011;3908;52.310;7.230;2023-02-12T12:24:46;14.13;;;6.47;;
7729;SDS011;3908;52.310;7.230;2023-02-12T12:27:43;14.37;;;7.27;;
7729;SDS011;3908;52.310;7.230;2023-02-12T12:30:56;17.43;;;8.43;;
7729;SDS011;3908;52.310;7.230;2023-02-12T12:33:49;15.77;;;8.73;;
7729;SDS011;3908;52.310;7.230;2023-02-12T12:39:55;11.70;;;5.37;;
7729;SDS011;3908;52.310;7.230;2023-02-12T12:43:08;11.07;;;6.23;;
7729;SDS011;3908;52.310;7.230;2023-02-12T12:49:25;13.07;;;7.67;;
7729;SDS011;3908;52.310;7.230;2023-02-12T12:55:58;15.60;;;9.00;;
7729;SDS011;3908;52.310;7.230;2023-02-12T12:59:01;17.30;;;8.87;;
7729;SDS011;3908;52.310;7.230;2023-02-12T13:02:15;16.23;;;6.77;;
7729;SDS011;3908;52.310;7.230;2023-02-12T13:05:44;9.87;;;5.20;;
7729;SDS011;3908;52.310;7.230;2023-02-12T13:09:25;10.17;;;5.00;;
7729;SDS011;3908;52.310;7.230;2023-02-12T13:12:32;7.47;;;4.70;;
7729;SDS011;3908;52.310;7.230;2023-02-12T13:15:38;13.20;;;5.60;;
7729;SDS011;3908;52.310;7.230;2023-02-12T13:18:32;11.20;;;5.97;;
7729;SDS011;3908;52.310;7.230;2023-02-12T13:21:32;12.60;;;6.40;;
7729;SDS011;3908;52.310;7.230;2023-02-12T13:24:28;9.87;;;6.37;;
7729;SDS011;3908;52.310;7.230;2023-02-12T13:27:21;13.20;;;6.67;;
7729;SDS011;3908;52.310;7.230;2023-02-12T13:30:18;12.23;;;6.23;;
7729;SDS011;3908;52.310;7.230;2023-02-12T13:33:08;18.90;;;7.40;;
7729;SDS011;3908;52.310;7.230;2023-02-12T13:36:02;16.70;;;8.40;;
7729;SDS011;3908;52.310;7.230;2023-02-12T13:38:53;15.03;;;8.00;;
7729;SDS011;3908;52.310;7.230;2023-02-12T13:41:46;17.30;;;8.27;;
7729;SDS011;3908;52.310;7.230;2023-02-12T13:44:44;19.07;;;8.33;;
7729;SDS011;3908;52.310;7.230;2023-02-12T13:47:43;14.27;;;8.53;;
7729;SDS011;3908;52.310;7.230;2023-02-12T13:50:38;17.43;;;9.03;;
7729;SDS011;3908;52.310;7.230;2023-02-12T13:53:33;18.03;;;8.83;;
7729;SDS011;3908;52.310;7.230;2023-02-12T13:56:33;19.63;;;10.30;;
7729;SDS011;3908;52.310;7.230;2023-02-12T13:59:39;18.07;;;8.57;;
7729;SDS011;3908;52.310;7.230;2023-02-12T14:05:33;11.97;;;6.70;;
7729;SDS011;3908;52.310;7.230;2023-02-12T14:08:26;13.80;;;7.90;;
7729;SDS011;3908;52.310;7.230;2023-02-12T14:11:22;15.73;;;8.43;;
7729;SDS011;3908;52.310;7.230;2023-02-12T14:14:23;20.17;;;8.60;;
7729;SDS011;3908;52.310;7.230;2023-02-12T14:20:39;17.57;;;8.13;;
7729;SDS011;3908;52.310;7.230;2023-02-12T14:23:27;18.27;;;8.77;;
7729;SDS011;3908;52.310;7.230;2023-02-12T14:26:18;15.97;;;8.47;;
7729;SDS011;3908;52.310;7.230;2023-02-12T14:29:14;15.90;;;9.20;;
7729;SDS011;3908;52.310;7.230;2023-02-12T14:35:39;17.53;;;8.33;;
7729;SDS011;3908;52.310;7.230;2023-02-12T14:41:51;16.73;;;9.47;;
7729;SDS011;3908;52.310;7.230;2023-02-12T14:44:42;16.93;;;7.90;;
7729;SDS011;3908;52.310;7.230;2023-02-12T14:50:50;15.10;;;7.97;;
7729;SDS011;3908;52.310;7.230;2023-02-12T14:53:38;16.73;;;9.00;;
7729;SDS011;3908;52.310;7.230;2023-02-12T14:56:28;17.23;;;9.43;;
7729;SDS011;3908;52.310;7.230;2023-02-12T14:59:24;18.23;;;8.83;;
7729;SDS011;3908;52.310;7.230;2023-02-12T15:02:17;17.30;;;9.70;;
7729;SDS011;3908;52.310;7.230;2023-02-12T15:05:12;18.07;;;9.20;;
7729;SDS011;3908;52.310;7.230;2023-02-12T15:08:06;15.30;;;8.37;;
7729;SDS011;3908;52.310;7.230;2023-02-12T15:11:04;16.70;;;8.60;;
7729;SDS011;3908;52.310;7.230;2023-02-12T15:14:00;15.97;;;8.40;;
7729;SDS011;3908;52.310;7.230;2023-02-12T15:16:53;20.13;;;8.93;;
7729;SDS011;3908;52.310;7.230;2023-02-12T15:19:45;16.30;;;8.30;;
7729;SDS011;3908;52.310;7.230;2023-02-12T15:22:41;15.77;;;8.97;;
7729;SDS011;3908;52.310;7.230;2023-02-12T15:25:31;17.50;;;8.87;;
7729;SDS011;3908;52.310;7.230;2023-02-12T15:28:20;20.97;;;9.47;;
7729;SDS011;3908;52.310;7.230;2023-02-12T15:31:13;21.93;;;9.70;;
7729;SDS011;3908;52.310;7.230;2023-02-12T15:34:02;17.03;;;7.80;;
7729;SDS011;3908;52.310;7.230;2023-02-12T15:36:50;18.30;;;8.87;;
7729;SDS011;3908;52.310;7.230;2023-02-12T15:39:38;16.13;;;7.70;;
7729;SDS011;3908;52.310;7.230;2023-02-12T15:42:31;16.10;;;9.00;;
7729;SDS011;3908;52.310;7.230;2023-02-12T15:45:22;15.90;;;8.77;;
7729;SDS011;3908;52.310;7.230;2023-02-12T15:48:12;17.77;;;10.50;;
7729;SDS011;3908;52.310;7.230;2023-02-12T15:51:04;14.10;;;8.53;;
7729;SDS011;3908;52.310;7.230;2023-02-12T15:53:55;22.30;;;9.80;;
7729;SDS011;3908;52.310;7.230;2023-02-12T15:56:45;18.70;;;9.83;;
7729;SDS011;3908;52.310;7.230;2023-02-12T15:59:34;19.27;;;9.53;;
7729;SDS011;3908;52.310;7.230;2023-02-12T16:02:24;16.93;;;10.00;;
7729;SDS011;3908;52.310;7.230;2023-02-12T16:05:13;16.97;;;8.97;;
7729;SDS011;3908;52.310;7.230;2023-02-12T16:08:02;16.10;;;9.13;;
7729;SDS011;3908;52.310;7.230;2023-02-12T16:10:51;15.57;;;8.83;;
7729;SDS011;3908;52.310;7.230;2023-02-12T16:13:42;16.00;;;8.67;;
7729;SDS011;3908;52.310;7.230;2023-02-12T16:16:39;17.27;;;8.30;;
7729;SDS011;3908;52.310;7.230;2023-02-12T16:19:29;15.20;;;8.43;;
7729;SDS011;3908;52.310;7.230;2023-02-12T16:22:18;15.83;;;8.60;;
7729;SDS011;3908;52.310;7.230;2023-02-12T16:25:12;15.20;;;9.43;;
7729;SDS011;3908;52.310;7.230;2023-02-12T16:28:02;17.50;;;9.37;;
7729;SDS011;3908;52.310;7.230;2023-02-12T16:30:50;16.53;;;8.67;;
7729;SDS011;3908;52.310;7.230;2023-02-12T16:33:42;18.07;;;9.40;;
7729;SDS011;3908;52.310;7.230;2023-02-12T16:36:44;14.63;;;8.20;;
7729;SDS011;3908;52.310;7.230;2023-02-12T16:42:55;19.03;;;8.57;;
7729;SDS011;3908;52.310;7.230;2023-02-12T16:45:43;16.37;;;8.77;;
7729;SDS011;3908;52.310;7.230;2023-02-12T16:48:35;18.60;;;8.93;;
7729;SDS011;3908;52.310;7.230;2023-02-12T16:51:27;16.27;;;8.83;;
7729;SDS011;3908;52.310;7.230;2023-02-12T16:54:27;15.63;;;8.67;;
7729;SDS011;3908;52.310;7.230;2023-02-12T16:57:15;21.17;;;8.57;;
7729;SDS011;3908;52.310;7.230;2023-02-12T17:00:02;17.37;;;8.97;;
7729;SDS011;3908;52.310;7.230;2023-02-12T17:02:50;15.23;;;8.93;;
7729;SDS011;3908;52.310;7.230;2023-02-12T17:05:40;17.20;;;8.33;;
7729;SDS011;3908;52.310;7.230;2023-02-12T17:08:30;15.73;;;7.97;;
7729;SDS011;3908;52.310;7.230;2023-02-12T17:11:21;15.77;;;8.47;;
7729;SDS011;3908;52.310;7.230;2023-02-12T17:14:12;16.63;;;8.30;;
7729;SDS011;3908;52.310;7.230;2023-02-12T17:17:04;16.20;;;8.53;;
7729;SDS011;3908;52.310;7.230;2023-02-12T17:19:51;18.17;;;9.60;;
7729;SDS011;3908;52.310;7.230;2023-02-12T17:22:38;18.87;;;9.20;;
7729;SDS011;3908;52.310;7.230;2023-02-12T17:25:35;16.80;;;8.60;;
7729;SDS011;3908;52.310;7.230;2023-02-12T17:28:22;20.00;;;9.43;;
7729;SDS011;3908;52.310;7.230;2023-02-12T17:31:10;18.20;;;9.13;;
7729;SDS011;3908;52.310;7.230;2023-02-12T17:33:57;18.20;;;10.30;;
7729;SDS011;3908;52.310;7.230;2023-02-12T17:36:44;15.37;;;9.03;;
7729;SDS011;3908;52.310;7.230;2023-02-12T17:39:32;19.23;;;8.90;;
7729;SDS011;3908;52.310;7.230;2023-02-12T17:42:24;22.17;;;9.87;;
7729;SDS011;3908;52.310;7.230;2023-02-12T17:45:26;16.27;;;8.80;;
7729;SDS011;3908;52.310;7.230;2023-02-12T17:48:16;12.17;;;7.63;;
7729;SDS011;3908;52.310;7.230;2023-02-12T17:51:04;14.13;;;8.10;;
7729;SDS011;3908;52.310;7.230;2023-02-12T17:53:54;14.77;;;8.20;;
7729;SDS011;3908;52.310;7.230;2023-02-12T17:56:44;16.17;;;8.57;;
7729;SDS011;3908;52.310;7.230;2023-02-12T17:59:32;15.27;;;8.53;;
7729;SDS011;3908;52.310;7.230;2023-02-12T18:02:21;17.93;;;9.97;;
7729;SDS011;3908;52.310;7.230;2023-02-12T18:05:11;17.00;;;9.13;;
7729;SDS011;3908;52.310;7.230;2023-02-12T18:07:58;15.70;;;8.50;;
7729;SDS011;3908;52.310;7.230;2023-02-12T18:10:48;16.50;;;8.60;;
7729;SDS011;3908;52.310;7.230;2023-02-12T18:13:35;21.03;;;9.80;;